Time,TemperatureF,DewpointF,PressureIn,WindDirection,WindDirectionDegrees,WindSpeedMPH,WindSpeedGustMPH,Humidity,HourlyPrecipIn,Conditions,Clouds,dailyrainin,SoftwareType,DateUTC
2013-04-08 00:00:00,43.5,41.6,29.99,SW,236,0.0,2.0,93,0.00,,OVC010,0.00,VWS V14.01,2013-04-08 04:00:00,
2013-04-08 00:01:00,43.5,41.6,29.99,SW,236,0.0,2.0,93,0.00,,BKN250,0.00,VWS V14.01,2013-04-08 04:01:00,
2013-04-08 00:10:00,43.6,41.7,29.99,SSE,160,0.0,0.0,93,0.00,,OVC250,0.00,VWS V14.01,2013-04-08 04:10:00,
2013-04-08 00:20:00,43.5,41.6,29.99,ESE,122,2.0,2.0,93,0.00,,OVC250,0.00,VWS V14.01,2013-04-08 04:20:00,
2013-04-08 00:30:00,43.6,41.7,29.99,WNW,283,0.0,2.0,93,0.00,,OVC250,0.00,VWS V14.01,2013-04-08 04:30:00,
2013-04-08 00:40:00,43.5,41.6,29.99,SE,132,0.0,0.0,93,0.00,,OVC250,0.00,VWS V14.01,2013-04-08 04:40:00,
2013-04-08 00:50:00,43.4,41.5,29.98,SW,228,0.0,0.0,93,0.00,,OVC250,0.00,VWS V14.01,2013-04-08 04:50:00,
2013-04-08 01:00:00,43.0,41.1,29.98,SW,228,0.0,0.0,93,0.00,,OVC250,0.00,VWS V14.01,2013-04-08 05:00:00,
2013-04-08 01:10:00,42.8,41.2,29.98,East,92,0.0,0.0,94,0.00,,OVC220,0.00,VWS V14.01,2013-04-08 05:10:00,
2013-04-08 01:20:00,42.7,41.1,29.99,East,91,0.0,0.0,94,0.00,,OVC220,0.00,VWS V14.01,2013-04-08 05:20:00,
2013-04-08 01:30:00,42.3,40.7,29.99,East,91,0.0,0.0,94,0.00,,OVC220,0.00,VWS V14.01,2013-04-08 05:30:00,
2013-04-08 01:40:00,42.1,40.8,29.98,East,91,0.0,0.0,95,0.00,,OVC220,0.00,VWS V14.01,2013-04-08 05:40:00,
2013-04-08 01:50:00,42.1,40.8,29.98,SE,145,0.0,0.0,95,0.00,,OVC220,0.00,VWS V14.01,2013-04-08 05:50:00,
2013-04-08 02:00:00,42.1,40.8,29.98,ESE,121,0.0,0.0,95,0.00,,OVC220,0.00,VWS V14.01,2013-04-08 06:00:00,
2013-04-08 02:10:00,41.7,40.4,29.97,ESE,121,0.0,0.0,95,0.00,,OVC250,0.00,VWS V14.01,2013-04-08 06:10:00,
2013-04-08 02:20:00,41.2,39.9,29.97,ESE,115,0.0,0.0,95,0.00,,OVC250,0.00,VWS V14.01,2013-04-08 06:20:00,
2013-04-08 02:30:00,41.5,40.5,29.97,SE,128,0.0,0.0,96,0.00,,OVC250,0.00,VWS V14.01,2013-04-08 06:30:00,
2013-04-08 02:40:00,41.4,40.3,29.97,ESE,122,0.0,0.0,96,0.00,,OVC250,0.00,VWS V14.01,2013-04-08 06:40:00,
2013-04-08 02:50:00,41.2,40.2,29.97,ESE,120,0.0,0.0,96,0.00,,OVC250,0.00,VWS V14.01,2013-04-08 06:50:00,
2013-04-08 03:00:00,41.1,40.0,29.96,ESE,120,0.0,0.0,96,0.00,,OVC250,0.00,VWS V14.01,2013-04-08 07:00:00,
2013-04-08 03:10:00,40.9,39.8,29.96,ESE,120,0.0,0.0,96,0.00,,SCT250,0.00,VWS V14.01,2013-04-08 07:10:00,
2013-04-08 03:20:00,41.0,40.0,29.96,SE,125,0.0,0.0,96,0.00,,SCT250,0.00,VWS V14.01,2013-04-08 07:20:00,
2013-04-08 03:30:00,39.9,38.8,29.96,SE,125,0.0,0.0,96,0.00,,SCT250,0.00,VWS V14.01,2013-04-08 07:30:00,
2013-04-08 03:40:00,39.9,39.1,29.96,SE,125,0.0,0.0,97,0.00,,SCT250,0.00,VWS V14.01,2013-04-08 07:40:00,
2013-04-08 03:50:00,39.2,38.2,29.95,SE,125,0.0,0.0,96,0.00,,SCT250,0.00,VWS V14.01,2013-04-08 07:50:00,
2013-04-08 04:00:00,38.9,37.9,29.95,SE,125,0.0,0.0,96,0.00,,SCT250,0.00,VWS V14.01,2013-04-08 08:00:00,
2013-04-08 04:10:00,38.5,37.5,29.96,SE,125,0.0,0.0,96,0.00,,SCT250,0.00,VWS V14.01,2013-04-08 08:10:00,
2013-04-08 04:20:00,38.4,37.6,29.96,SE,125,0.0,0.0,97,0.00,,SCT250,0.00,VWS V14.01,2013-04-08 08:20:00,
2013-04-08 04:30:00,38.3,37.5,29.97,SE,125,0.0,0.0,97,0.00,,SCT250,0.00,VWS V14.01,2013-04-08 08:30:00,
2013-04-08 04:40:00,38.1,37.3,29.97,SE,125,0.0,0.0,97,0.00,,SCT250,0.00,VWS V14.01,2013-04-08 08:40:00,
2013-04-08 04:50:00,37.6,36.8,29.97,SE,125,0.0,0.0,97,0.00,,SCT250,0.00,VWS V14.01,2013-04-08 08:50:00,
2013-04-08 05:00:00,37.9,37.1,29.98,SE,125,0.0,0.0,97,0.00,,OVC010,0.00,VWS V14.01,2013-04-08 09:00:00,
2013-04-08 05:10:00,38.6,38.1,29.98,SE,125,0.0,0.0,98,0.00,,,0.00,VWS V14.01,2013-04-08 09:10:00,
2013-04-08 05:20:00,38.6,38.1,29.98,SE,125,0.0,0.0,98,0.00,,,0.00,VWS V14.01,2013-04-08 09:20:00,
2013-04-08 05:30:00,39.4,38.9,29.98,NW,318,0.0,0.0,98,0.00,,OVC010,0.00,VWS V14.01,2013-04-08 09:30:00,
2013-04-08 05:31:00,39.4,38.9,29.98,NW,318,0.0,0.0,98,0.00,,,0.00,VWS V14.01,2013-04-08 09:31:00,
2013-04-08 05:40:00,39.7,39.2,29.98,NW,318,0.0,0.0,98,0.00,,,0.00,VWS V14.01,2013-04-08 09:40:00,
2013-04-08 05:50:00,40.0,39.5,29.99,SSE,159,0.0,0.0,98,0.00,,,0.00,VWS V14.01,2013-04-08 09:50:00,
2013-04-08 06:00:00,40.5,40.0,29.99,East,90,0.0,0.0,98,0.00,,,0.00,VWS V14.01,2013-04-08 10:00:00,
2013-04-08 06:10:00,40.6,39.5,29.99,NW,321,0.0,2.0,96,0.00,,,0.00,VWS V14.01,2013-04-08 10:10:00,
2013-04-08 06:20:00,40.8,39.5,29.99,NW,314,0.0,0.0,95,0.00,,,0.00,VWS V14.01,2013-04-08 10:20:00,
2013-04-08 06:30:00,41.0,38.9,30.00,East,82,0.0,0.0,92,0.00,,,0.00,VWS V14.01,2013-04-08 10:30:00,
2013-04-08 06:40:00,41.1,38.7,30.00,South,189,0.0,0.0,91,0.00,,,0.00,VWS V14.01,2013-04-08 10:40:00,
2013-04-08 06:50:00,41.3,38.3,30.01,WNW,291,0.0,2.0,89,0.00,,,0.00,VWS V14.01,2013-04-08 10:50:00,
2013-04-08 07:00:00,41.8,38.2,30.01,NW,311,0.0,4.0,87,0.00,,,0.00,VWS V14.01,2013-04-08 11:00:00,
2013-04-08 07:10:00,42.6,37.8,30.01,WNW,295,0.0,3.0,83,0.00,,,0.00,VWS V14.01,2013-04-08 11:10:00,
2013-04-08 07:20:00,43.3,37.9,30.02,NW,310,2.0,6.0,81,0.00,,,0.00,VWS V14.01,2013-04-08 11:20:00,
2013-04-08 07:30:00,43.8,37.7,30.02,NW,325,4.0,6.0,79,0.00,,,0.00,VWS V14.01,2013-04-08 11:30:00,
2013-04-08 07:40:00,44.2,37.8,30.02,WNW,294,3.0,6.0,78,0.00,,,0.00,VWS V14.01,2013-04-08 11:40:00,
2013-04-08 07:50:00,44.3,37.6,30.02,NW,319,2.0,5.0,77,0.00,,OVC010,0.00,VWS V14.01,2013-04-08 11:50:00,
2013-04-08 08:00:00,44.5,37.8,30.02,NNW,338,0.0,7.0,77,0.00,,OVC010,0.00,VWS V14.01,2013-04-08 12:00:00,
2013-04-08 08:01:00,44.5,37.8,30.02,NNW,338,0.0,7.0,77,0.00,,,0.00,VWS V14.01,2013-04-08 12:01:00,
2013-04-08 08:10:00,45.1,37.7,30.03,WNW,293,1.0,5.0,75,0.00,,BKN240,0.00,VWS V14.01,2013-04-08 12:10:00,
2013-04-08 08:20:00,45.5,37.7,30.03,WNW,290,3.0,6.0,74,0.00,,BKN240,0.00,VWS V14.01,2013-04-08 12:20:00,
2013-04-08 08:30:00,45.4,37.3,30.03,NNW,328,3.0,10.0,73,0.00,,BKN240,0.00,VWS V14.01,2013-04-08 12:30:00,
2013-04-08 08:40:00,45.5,37.4,30.03,WNW,283,2.0,8.0,73,0.00,,BKN240,0.00,VWS V14.01,2013-04-08 12:40:00,
2013-04-08 08:50:00,46.0,37.8,30.03,NW,312,0.0,6.0,73,0.00,,BKN240,0.00,VWS V14.01,2013-04-08 12:50:00,
2013-04-08 09:00:00,46.0,37.1,30.04,NW,312,3.0,7.0,71,0.00,,BKN240,0.00,VWS V14.01,2013-04-08 13:00:00,
2013-04-08 09:10:00,46.8,38.3,30.03,NW,316,3.0,11.0,72,0.00,,BKN240,0.00,VWS V14.01,2013-04-08 13:10:00,
2013-04-08 09:20:00,46.6,37.3,30.04,WNW,293,3.0,9.0,70,0.00,,BKN240,0.00,VWS V14.01,2013-04-08 13:20:00,
2013-04-08 09:30:00,47.5,38.2,30.04,NNW,328,3.0,6.0,70,0.00,,BKN240,0.00,VWS V14.01,2013-04-08 13:30:00,
2013-04-08 09:40:00,48.5,38.4,30.05,NW,316,5.0,6.0,68,0.00,,BKN240,0.00,VWS V14.01,2013-04-08 13:40:00,
2013-04-08 09:50:00,49.4,38.1,30.05,NW,309,2.0,9.0,65,0.00,,BKN240,0.00,VWS V14.01,2013-04-08 13:50:00,
2013-04-08 10:00:00,48.9,38.4,30.06,WSW,248,3.0,7.0,67,0.00,,BKN240,0.00,VWS V14.01,2013-04-08 14:00:00,
2013-04-08 10:10:00,49.3,38.4,30.06,NW,304,2.0,8.0,66,0.00,,BKN250,0.00,VWS V14.01,2013-04-08 14:10:00,
2013-04-08 10:20:00,50.2,38.9,30.06,WNW,291,4.0,6.0,65,0.00,,BKN250,0.00,VWS V14.01,2013-04-08 14:20:00,
2013-04-08 10:30:00,50.9,38.4,30.05,NNW,338,2.0,6.0,62,0.00,,BKN250,0.00,VWS V14.01,2013-04-08 14:30:00,
2013-04-08 10:40:00,51.9,38.9,30.06,NW,316,2.0,7.0,61,0.00,,BKN250,0.00,VWS V14.01,2013-04-08 14:40:00,
2013-04-08 10:50:00,52.8,38.9,30.05,NW,314,2.0,6.0,59,0.00,,BKN250,0.00,VWS V14.01,2013-04-08 14:50:00,
2013-04-08 11:00:00,52.5,38.2,30.05,WNW,303,7.0,7.0,58,0.00,,BKN250,0.00,VWS V14.01,2013-04-08 15:00:00,
2013-04-08 11:10:00,53.4,39.5,30.05,NW,314,3.0,7.0,59,0.00,,SCT250,0.00,VWS V14.01,2013-04-08 15:10:00,
2013-04-08 11:20:00,54.7,39.3,30.05,WNW,300,3.0,6.0,56,0.00,,SCT250,0.00,VWS V14.01,2013-04-08 15:20:00,
2013-04-08 11:30:00,55.5,40.1,30.05,NE,45,3.0,4.0,56,0.00,,SCT250,0.00,VWS V14.01,2013-04-08 15:30:00,
2013-04-08 11:40:00,56.1,39.2,30.05,WSW,252,3.0,5.0,53,0.00,,SCT250,0.00,VWS V14.01,2013-04-08 15:40:00,
2013-04-08 11:50:00,56.7,38.8,30.05,NW,316,1.0,5.0,51,0.00,,SCT250,0.00,VWS V14.01,2013-04-08 15:50:00,
2013-04-08 12:00:00,57.8,40.8,30.05,NE,34,3.0,8.0,53,0.00,,SCT250,0.00,VWS V14.01,2013-04-08 16:00:00,
2013-04-08 12:10:00,58.1,40.1,30.05,NNW,329,1.0,6.0,51,0.00,,FEW250,0.00,VWS V14.01,2013-04-08 16:10:00,
2013-04-08 12:20:00,58.9,39.8,30.05,SW,221,1.0,3.0,49,0.00,,FEW250,0.00,VWS V14.01,2013-04-08 16:20:00,
2013-04-08 12:30:00,59.4,39.2,30.05,North,355,2.0,5.0,47,0.00,,FEW250,0.00,VWS V14.01,2013-04-08 16:30:00,
2013-04-08 12:40:00,59.6,39.4,30.05,NW,320,4.0,6.0,47,0.00,,FEW250,0.00,VWS V14.01,2013-04-08 16:40:00,
2013-04-08 12:50:00,60.0,39.7,30.05,North,351,3.0,5.0,47,0.00,,FEW250,0.00,VWS V14.01,2013-04-08 16:50:00,
2013-04-08 13:00:00,60.7,39.8,30.05,NNW,338,0.0,5.0,46,0.00,,FEW250,0.00,VWS V14.01,2013-04-08 17:00:00,
2013-04-08 13:10:00,60.8,39.3,30.05,West,279,3.0,7.0,45,0.00,,CLR,0.00,VWS V14.01,2013-04-08 17:10:00,
2013-04-08 13:20:00,60.4,39.5,30.05,NW,308,3.0,8.0,46,0.00,,CLR,0.00,VWS V14.01,2013-04-08 17:20:00,
2013-04-08 13:30:00,60.8,39.3,30.04,ENE,58,2.0,7.0,45,0.00,,CLR,0.00,VWS V14.01,2013-04-08 17:30:00,
2013-04-08 13:40:00,61.8,39.7,30.04,WSW,240,4.0,5.0,44,0.00,,CLR,0.00,VWS V14.01,2013-04-08 17:40:00,
2013-04-08 13:50:00,61.5,40.5,30.04,WNW,303,1.0,5.0,46,0.00,,CLR,0.00,VWS V14.01,2013-04-08 17:50:00,
2013-04-08 14:00:00,62.1,38.1,30.04,SE,146,1.0,5.0,41,0.00,,OVC010,0.00,VWS V14.01,2013-04-08 18:00:00,
2013-04-08 14:01:00,62.1,38.1,30.04,SE,146,1.0,5.0,41,0.00,,CLR,0.00,VWS V14.01,2013-04-08 18:01:00,
2013-04-08 14:10:00,62.5,39.1,30.03,WNW,301,1.0,4.0,42,0.00,,FEW250,0.00,VWS V14.01,2013-04-08 18:10:00,
2013-04-08 14:20:00,63.4,39.3,30.03,WSW,249,1.0,5.0,41,0.00,,FEW250,0.00,VWS V14.01,2013-04-08 18:20:00,
2013-04-08 14:30:00,63.2,38.5,30.03,SW,229,2.0,6.0,40,0.00,,OVC010,0.00,VWS V14.01,2013-04-08 18:30:00,
2013-04-08 14:31:00,63.2,38.5,30.03,SW,229,2.0,6.0,40,0.00,,FEW250,0.00,VWS V14.01,2013-04-08 18:31:00,
2013-04-08 14:40:00,63.7,40.2,30.02,SSE,162,0.0,5.0,42,0.00,,FEW250,0.00,VWS V14.01,2013-04-08 18:40:00,
2013-04-08 14:50:00,65.4,40.5,30.02,North,360,2.0,2.0,40,0.00,,FEW250,0.00,VWS V14.01,2013-04-08 18:50:00,
2013-04-08 15:00:00,65.3,40.4,30.02,SW,218,3.0,5.0,40,0.00,,OVC010,0.00,VWS V14.01,2013-04-08 19:00:00,
2013-04-08 15:01:00,65.3,40.4,30.02,SW,218,3.0,5.0,40,0.00,,FEW250,0.00,VWS V14.01,2013-04-08 19:01:00,
2013-04-08 15:10:00,65.2,39.0,30.02,West,259,3.0,6.0,38,0.00,,SCT250,0.00,VWS V14.01,2013-04-08 19:10:00,
2013-04-08 15:20:00,64.8,39.3,30.01,WNW,303,2.0,8.0,39,0.00,,SCT250,0.00,VWS V14.01,2013-04-08 19:20:00,
2013-04-08 15:30:00,65.4,40.5,30.01,WSW,239,4.0,6.0,40,0.00,,OVC010,0.00,VWS V14.01,2013-04-08 19:30:00,
2013-04-08 15:31:00,65.4,40.5,30.01,WSW,239,4.0,6.0,40,0.00,,SCT250,0.00,VWS V14.01,2013-04-08 19:31:00,
2013-04-08 15:40:00,65.3,38.4,30.01,NNW,336,3.0,8.0,37,0.00,,SCT250,0.00,VWS V14.01,2013-04-08 19:40:00,
2013-04-08 15:50:00,64.8,38.6,30.00,WSW,238,2.0,6.0,38,0.00,,SCT250,0.00,VWS V14.01,2013-04-08 19:50:00,
2013-04-08 16:00:00,65.2,39.0,30.00,SSE,150,1.0,7.0,38,0.00,,OVC010,0.00,VWS V14.01,2013-04-08 20:00:00,
2013-04-08 16:01:00,65.2,39.0,30.00,SSE,150,1.0,7.0,38,0.00,,SCT250,0.00,VWS V14.01,2013-04-08 20:01:00,
2013-04-08 16:10:00,65.6,38.0,30.00,WNW,302,3.0,5.0,36,0.00,,BKN250,0.00,VWS V14.01,2013-04-08 20:10:00,
2013-04-08 16:20:00,65.6,38.0,30.00,NW,312,2.0,5.0,36,0.00,,BKN250,0.00,VWS V14.01,2013-04-08 20:20:00,
2013-04-08 16:30:00,65.4,39.2,30.00,SSW,207,3.0,4.0,38,0.00,,OVC010,0.00,VWS V14.01,2013-04-08 20:30:00,
2013-04-08 16:31:00,65.4,39.2,30.00,SSW,207,3.0,4.0,38,0.00,,BKN250,0.00,VWS V14.01,2013-04-08 20:31:00,
2013-04-08 16:40:00,65.2,38.3,30.00,SW,229,2.0,4.0,37,0.00,,BKN250,0.00,VWS V14.01,2013-04-08 20:40:00,
2013-04-08 16:50:00,65.3,38.4,30.00,SW,226,0.0,5.0,37,0.00,,BKN250,0.00,VWS V14.01,2013-04-08 20:50:00,
2013-04-08 17:00:00,64.8,38.6,30.00,NW,319,1.0,6.0,38,0.00,,OVC010,0.00,VWS V14.01,2013-04-08 21:00:00,
2013-04-08 17:01:00,64.8,38.6,30.00,NW,319,1.0,6.0,38,0.00,,BKN250,0.00,VWS V14.01,2013-04-08 21:01:00,
2013-04-08 17:10:00,65.3,38.4,30.00,South,187,0.0,4.0,37,0.00,,BKN250,0.00,VWS V14.01,2013-04-08 21:10:00,
2013-04-08 17:20:00,65.8,38.8,30.00,West,279,0.0,3.0,37,0.00,,BKN250,0.00,VWS V14.01,2013-04-08 21:20:00,
2013-04-08 17:30:00,65.6,38.7,30.00,SW,229,0.0,2.0,37,0.00,,OVC010,0.00,VWS V14.01,2013-04-08 21:30:00,
2013-04-08 17:31:00,65.6,38.7,30.00,SW,229,0.0,2.0,37,0.00,,BKN250,0.00,VWS V14.01,2013-04-08 21:31:00,
2013-04-08 17:40:00,65.4,38.5,30.00,NW,316,1.0,4.0,37,0.00,,BKN250,0.00,VWS V14.01,2013-04-08 21:40:00,
2013-04-08 17:50:00,64.7,37.8,29.99,NW,322,0.0,3.0,37,0.00,,BKN250,0.00,VWS V14.01,2013-04-08 21:50:00,
2013-04-08 18:00:00,64.3,38.8,29.99,NW,321,0.0,1.0,39,0.00,,OVC010,0.00,VWS V14.01,2013-04-08 22:00:00,
2013-04-08 18:01:00,64.3,38.8,29.99,NW,321,0.0,1.0,39,0.00,,BKN250,0.00,VWS V14.01,2013-04-08 22:01:00,
2013-04-08 18:10:00,64.0,39.2,30.00,NW,322,0.0,0.0,40,0.00,,BKN250,0.00,VWS V14.01,2013-04-08 22:10:00,
2013-04-08 18:20:00,63.7,38.3,30.00,SW,229,0.0,0.0,39,0.00,,BKN250,0.00,VWS V14.01,2013-04-08 22:20:00,
2013-04-08 18:30:00,63.6,38.2,30.00,SSW,211,0.0,0.0,39,0.00,,OVC010,0.00,VWS V14.01,2013-04-08 22:30:00,
2013-04-08 18:31:00,63.6,38.2,30.00,SSW,211,0.0,0.0,39,0.00,,BKN250,0.00,VWS V14.01,2013-04-08 22:31:00,
2013-04-08 18:40:00,63.6,38.9,29.99,SE,134,0.0,2.0,40,0.00,,BKN250,0.00,VWS V14.01,2013-04-08 22:40:00,
2013-04-08 18:50:00,63.2,39.1,29.99,East,80,0.0,1.0,41,0.00,,BKN250,0.00,VWS V14.01,2013-04-08 22:50:00,
2013-04-08 19:00:00,62.7,39.3,29.99,ESE,116,0.0,0.0,42,0.00,,OVC010,0.00,VWS V14.01,2013-04-08 23:00:00,
2013-04-08 19:01:00,62.7,39.3,29.99,ESE,116,0.0,0.0,42,0.00,,BKN250,0.00,VWS V14.01,2013-04-08 23:01:00,
2013-04-08 19:10:00,61.8,39.7,29.99,ESE,116,0.0,0.0,44,0.00,,OVC250,0.00,VWS V14.01,2013-04-08 23:10:00,
2013-04-08 19:20:00,60.7,40.4,29.99,ESE,116,0.0,0.0,47,0.00,,OVC250,0.00,VWS V14.01,2013-04-08 23:20:00,
2013-04-08 19:30:00,59.7,40.5,30.00,East,96,0.0,1.0,49,0.00,,OVC010,0.00,VWS V14.01,2013-04-08 23:30:00,
2013-04-08 19:31:00,59.7,40.5,30.00,East,96,0.0,1.0,49,0.00,,OVC250,0.00,VWS V14.01,2013-04-08 23:31:00,
2013-04-08 19:40:00,59.4,40.2,30.00,East,96,1.0,1.0,49,0.00,,OVC250,0.00,VWS V14.01,2013-04-08 23:40:00,
2013-04-08 19:50:00,59.2,40.1,30.01,East,96,0.0,1.0,49,0.00,,OVC250,0.00,VWS V14.01,2013-04-08 23:50:00,
2013-04-08 20:00:00,59.0,39.9,30.00,East,89,1.0,1.0,49,0.00,,OVC250,0.00,VWS V14.01,2013-04-09 00:00:00,
2013-04-08 20:10:00,58.8,40.7,30.01,ESE,109,1.0,1.0,51,0.00,,BKN250,0.00,VWS V14.01,2013-04-09 00:10:00,
2013-04-08 20:20:00,58.8,40.2,30.01,SE,131,0.0,5.0,50,0.00,,BKN250,0.00,VWS V14.01,2013-04-09 00:20:00,
2013-04-08 20:30:00,58.6,39.5,30.01,SE,129,0.0,1.0,49,0.00,,OVC010,0.00,VWS V14.01,2013-04-09 00:30:00,
2013-04-08 20:31:00,58.6,39.5,30.01,SE,129,0.0,1.0,49,0.00,,BKN250,0.00,VWS V14.01,2013-04-09 00:31:00,
2013-04-08 20:40:00,58.4,39.8,30.01,ESE,121,0.0,0.0,50,0.00,,BKN250,0.00,VWS V14.01,2013-04-09 00:40:00,
2013-04-08 20:50:00,58.3,40.3,30.01,ESE,122,0.0,0.0,51,0.00,,BKN250,0.00,VWS V14.01,2013-04-09 00:50:00,
2013-04-08 21:00:00,58.2,40.7,30.01,ESE,121,0.0,0.0,52,0.00,,OVC010,0.00,VWS V14.01,2013-04-09 01:00:00,
2013-04-08 21:01:00,58.2,40.7,30.01,ESE,121,0.0,0.0,52,0.00,,BKN250,0.00,VWS V14.01,2013-04-09 01:01:00,
2013-04-08 21:10:00,57.8,41.3,30.01,ESE,121,0.0,0.0,54,0.00,,OVC180,0.00,VWS V14.01,2013-04-09 01:10:00,
2013-04-08 21:20:00,57.6,41.1,30.02,ESE,122,0.0,0.0,54,0.00,,OVC180,0.00,VWS V14.01,2013-04-09 01:20:00,
2013-04-08 21:30:00,57.3,41.3,30.02,ESE,121,0.0,0.0,55,0.00,,OVC010,0.00,VWS V14.01,2013-04-09 01:30:00,
2013-04-08 21:31:00,57.3,41.3,30.02,ESE,121,0.0,0.0,55,0.00,,OVC180,0.00,VWS V14.01,2013-04-09 01:31:00,
2013-04-08 21:40:00,57.0,41.9,30.02,ESE,121,0.0,0.0,57,0.00,,OVC180,0.00,VWS V14.01,2013-04-09 01:40:00,
2013-04-08 21:50:00,56.4,41.8,30.01,ESE,108,0.0,0.0,58,0.00,,OVC180,0.00,VWS V14.01,2013-04-09 01:50:00,
2013-04-08 22:00:00,56.7,42.1,30.01,ESE,110,0.0,3.0,58,0.00,,OVC010,0.00,VWS V14.01,2013-04-09 02:00:00,
2013-04-08 22:01:00,56.7,42.1,30.01,ESE,110,0.0,3.0,58,0.00,,OVC180,0.00,VWS V14.01,2013-04-09 02:01:00,
2013-04-08 22:10:00,56.7,42.1,30.01,SE,124,0.0,1.0,58,0.00,,OVC160,0.00,VWS V14.01,2013-04-09 02:10:00,
2013-04-08 22:20:00,56.7,42.5,30.01,SE,127,2.0,3.0,59,0.00,,OVC160,0.00,VWS V14.01,2013-04-09 02:20:00,
2013-04-08 22:30:00,56.6,42.5,30.01,SE,134,0.0,2.0,59,0.00,,OVC160,0.00,VWS V14.01,2013-04-09 02:30:00,
2013-04-08 22:40:00,56.2,42.5,30.00,SE,134,0.0,0.0,60,0.00,,OVC160,0.00,VWS V14.01,2013-04-09 02:40:00,
2013-04-08 22:50:00,55.8,43.0,30.00,SE,134,0.0,0.0,62,0.00,,OVC160,0.00,VWS V14.01,2013-04-09 02:50:00,
2013-04-08 23:00:00,55.3,42.9,30.00,ESE,108,0.0,2.0,63,0.00,,OVC010,0.00,VWS V14.01,2013-04-09 03:00:00,
2013-04-08 23:01:00,55.3,42.9,30.00,ESE,108,0.0,2.0,63,0.00,,OVC160,0.00,VWS V14.01,2013-04-09 03:01:00,
2013-04-08 23:10:00,54.9,43.0,30.00,ESE,108,0.0,1.0,64,0.00,,OVC140,0.00,VWS V14.01,2013-04-09 03:10:00,
2013-04-08 23:20:00,54.5,43.0,30.00,ESE,121,0.0,0.0,65,0.00,,OVC140,0.00,VWS V14.01,2013-04-09 03:20:00,
2013-04-08 23:30:00,54.3,42.8,29.99,SSW,210,0.0,0.0,65,0.00,,OVC010,0.00,VWS V14.01,2013-04-09 03:30:00,
2013-04-08 23:31:00,54.3,42.8,29.99,SSW,210,0.0,0.0,65,0.00,,OVC140,0.00,VWS V14.01,2013-04-09 03:31:00,
2013-04-08 23:40:00,54.6,42.7,29.99,South,184,0.0,2.0,64,0.00,,OVC140,0.00,VWS V14.01,2013-04-09 03:40:00,
2013-04-08 23:50:00,54.8,42.5,29.98,SSE,149,0.0,3.0,63,0.00,,OVC140,0.00,VWS V14.01,2013-04-09 03:50:00,